Marshallville, Georgia
Current Conditions -  °F | °C
As of 8:15 AM on Thursday 30 Oct 2014 (Local Time) from KPXE Reporting Station
Clear Clear  
Wind Chill: 52°   Ceiling: Unl
Heat Index: 52°   Visibility: 10mi
Dew Point: 45°   Wind: 6mph
Humidity: 76%   Direction: 350°N
Pressure: 30.05"   Gusts: NA
Location:  32.46°N, 83.94°W
Report Text: KPXE 301215Z AUTO 35005KT 10SM CLR 11/07 A3005 RMK AO2 T01100070
Loading
Personal Weather Stations






























Interactive Weather Map
Tropical Storm Tracking
New forecast layout! Learn more

10-Day Weather Forecast

Advertisements
Track Severe Weather on mobile